»·PEaware :: N850FR KFUL-KGCN

N850FR :: KFUL-KGCN

FLIGHT INFORMATION

Flight Status: Arrived
Operator: Privately registered:
United States
More flights under this callsign
Pilot: Anonymous 36936 (36936)
Aircraft: SOCATA TBM-900
(TBM9)
More flights by this aircraft type
Origin: KFUL Fullerton Mun
United States
Destination: KGCN Grand Canyon Natl Park
United States
More flights between these airports :: More routes between these airports
Route: SLI V21 PDZ V442 APLES V394 DAG GFS PGS V210 GCN
File this flight plan on PilotEdge
Remarks: ZLA ALPHABET CHALLENGE #6
Altitude:
(Current/Filed)
31,000ft
Speed:
(Current/Filed)
315kts
Departed: 30-Nov-21 09:12 AM
Arrived: 30-Nov-21 10:37 AM
Distance/Time
Traveled:
314nm/1:25
Distance/Time
To Go:
Arrived

Flight Plot

Page will automatically refresh every two minutes.

Flight plan parsing failed; only flown route is shown


Map Options




Map Legend


Flown Route
Filed Route
Departure Airport
Arrival Airport
Navaid (VOR, NDB)
Fix

Horizontal Profiles

Position Reports

Time Latitude Longitude Heading Altitude Ground
Speed
30-Nov-21 08:38 33.870848 -117.981249 180 90ft 0kts
30-Nov-21 08:39 33.870848 -117.981249 180 90ft 0kts
30-Nov-21 08:40 33.870848 -117.981249 180 90ft 0kts
30-Nov-21 08:41 33.870848 -117.981249 180 90ft 0kts
30-Nov-21 08:42 33.870848 -117.981249 180 90ft 0kts
30-Nov-21 08:43 33.870848 -117.981249 180 90ft 0kts
30-Nov-21 08:44 33.870848 -117.981249 180 90ft 0kts
30-Nov-21 08:45 33.870848 -117.981249 180 90ft 0kts
30-Nov-21 08:46 33.870848 -117.981249 180 90ft 0kts
30-Nov-21 08:47 33.870848 -117.981249 180 90ft 0kts
30-Nov-21 08:48 33.870848 -117.981249 180 90ft 0kts
30-Nov-21 08:49 33.870848 -117.981249 180 90ft 0kts
30-Nov-21 08:50 33.870848 -117.981249 180 90ft 0kts
30-Nov-21 08:51 33.870848 -117.981249 180 90ft 0kts
30-Nov-21 08:52 33.870848 -117.981249 180 90ft 0kts
30-Nov-21 08:53 33.870848 -117.981249 180 90ft 0kts
30-Nov-21 08:54 33.870848 -117.981249 180 90ft 0kts
30-Nov-21 08:56 33.870848 -117.981249 180 90ft 0kts
30-Nov-21 08:56 33.870848 -117.981249 180 90ft 0kts
30-Nov-21 08:57 33.870848 -117.981249 180 90ft 0kts
30-Nov-21 08:58 33.870848 -117.981249 180 90ft 0kts
30-Nov-21 08:59 33.870848 -117.981249 180 90ft 0kts
30-Nov-21 09:00 33.870848 -117.981249 180 90ft 0kts
30-Nov-21 09:01 33.870848 -117.981249 180 90ft 0kts
30-Nov-21 09:02 33.870848 -117.981249 180 90ft 0kts
30-Nov-21 09:03 33.870848 -117.981249 180 90ft 0kts
30-Nov-21 09:04 33.870848 -117.981249 180 90ft 0kts
30-Nov-21 09:05 33.871299 -117.981106 36 90ft 3kts
30-Nov-21 09:06 33.871915 -117.978191 77 92ft 7kts
30-Nov-21 09:07 33.872352 -117.975918 77 95ft 10kts
30-Nov-21 09:08 33.872562 -117.974891 58 95ft 0kts
30-Nov-21 09:09 33.872562 -117.974891 58 95ft 0kts
30-Nov-21 09:10 33.872957 -117.974994 269 95ft 1kts
30-Nov-21 09:11 33.868916 -117.993741 241 755ft 113kts
30-Nov-21 09:12 33.847247 -117.979859 131 2317ft 135kts
30-Nov-21 09:13 33.827239 -117.953678 128 3737ft 134kts
30-Nov-21 09:14 33.830013 -117.919632 71 4016ft 153kts
30-Nov-21 09:15 33.840263 -117.877343 73 4958ft 170kts
30-Nov-21 09:16 33.850542 -117.831989 73 4994ft 173kts
30-Nov-21 09:17 33.862467 -117.779163 73 4994ft 173kts
30-Nov-21 09:18 33.875764 -117.720096 73 4984ft 176kts
30-Nov-21 09:19 33.889838 -117.657301 73 7113ft 140kts
30-Nov-21 09:20 33.901135 -117.606867 72 9734ft 139kts
30-Nov-21 09:21 33.913093 -117.553337 72 12327ft 143kts
30-Nov-21 09:22 33.945194 -117.513599 26 14592ft 154kts
30-Nov-21 09:23 33.979536 -117.486288 36 16975ft 151kts
30-Nov-21 09:24 34.013395 -117.455660 37 19289ft 157kts
30-Nov-21 09:25 34.048214 -117.423941 37 21718ft 160kts
30-Nov-21 09:26 34.084255 -117.391052 37 24072ft 167kts
30-Nov-21 09:27 34.121390 -117.357126 37 26499ft 172kts
30-Nov-21 09:28 34.159822 -117.321970 38 28845ft 177kts
30-Nov-21 09:29 34.199540 -117.285600 38 30879ft 184kts
30-Nov-21 09:30 34.247680 -117.241438 38 31161ft 250kts
30-Nov-21 09:31 34.306645 -117.187264 37 31145ft 279kts
30-Nov-21 09:32 34.370043 -117.128920 38 31132ft 291kts
30-Nov-21 09:33 34.434690 -117.069304 38 31155ft 293kts
30-Nov-21 09:34 34.499270 -117.009652 37 31205ft 292kts
30-Nov-21 09:35 34.563881 -116.949834 37 31228ft 292kts
30-Nov-21 09:36 34.628269 -116.890111 37 31233ft 293kts
30-Nov-21 09:37 34.693213 -116.829743 37 31227ft 294kts
30-Nov-21 09:38 34.757885 -116.769504 37 31227ft 294kts
30-Nov-21 09:39 34.822527 -116.709179 37 31227ft 293kts
30-Nov-21 09:40 34.887217 -116.648672 37 31225ft 293kts
30-Nov-21 09:41 34.950104 -116.585599 50 31214ft 294kts
30-Nov-21 09:42 34.973386 -116.490206 77 31226ft 299kts
30-Nov-21 09:43 34.986113 -116.389471 78 31225ft 301kts
30-Nov-21 09:44 34.998672 -116.288515 78 31231ft 302kts
30-Nov-21 09:45 35.011154 -116.187396 78 31232ft 302kts
30-Nov-21 09:46 35.023608 -116.085762 78 31230ft 303kts
30-Nov-21 09:47 35.036010 -115.983857 78 31227ft 304kts
30-Nov-21 09:48 35.048338 -115.881835 78 31229ft 304kts
30-Nov-21 09:50 35.060601 -115.779623 78 31245ft 304kts
30-Nov-21 09:51 35.072769 -115.677473 78 31263ft 304kts
30-Nov-21 09:52 35.084834 -115.575269 78 31239ft 305kts
30-Nov-21 09:53 35.096833 -115.473019 78 31215ft 305kts
30-Nov-21 09:54 35.108804 -115.370276 78 31202ft 305kts
30-Nov-21 09:55 35.120716 -115.267121 79 31181ft 306kts
30-Nov-21 09:56 35.134603 -115.165388 67 31148ft 304kts
30-Nov-21 09:57 35.164534 -115.068855 67 31150ft 303kts
30-Nov-21 09:58 35.194373 -114.972426 67 31147ft 303kts
30-Nov-21 09:59 35.224111 -114.875972 67 31091ft 305kts
30-Nov-21 10:00 35.254465 -114.777167 67 30617ft 314kts
30-Nov-21 10:01 35.285365 -114.676298 67 30129ft 317kts
30-Nov-21 10:02 35.316225 -114.575209 67 29636ft 318kts
30-Nov-21 10:03 35.347293 -114.473073 67 29031ft 322kts
30-Nov-21 10:04 35.378973 -114.368566 67 27900ft 328kts
30-Nov-21 10:05 35.410412 -114.264460 68 26805ft 326kts
30-Nov-21 10:06 35.441623 -114.160737 68 25707ft 323kts
30-Nov-21 10:07 35.472354 -114.058232 68 24602ft 317kts
30-Nov-21 10:08 35.502438 -113.957413 68 23501ft 314kts
30-Nov-21 10:09 35.532253 -113.857294 68 22392ft 310kts
30-Nov-21 10:10 35.561477 -113.758755 69 21288ft 306kts
30-Nov-21 10:11 35.590380 -113.661010 69 20178ft 302kts
30-Nov-21 10:12 35.618816 -113.564449 69 19065ft 297kts
30-Nov-21 10:13 35.643483 -113.468293 72 17952ft 294kts
30-Nov-21 10:14 35.667075 -113.372240 72 16837ft 291kts
30-Nov-21 10:15 35.690295 -113.277360 72 15827ft 287kts
30-Nov-21 10:16 35.713104 -113.183802 72 14902ft 281kts
30-Nov-21 10:17 35.734495 -113.095643 72 14942ft 262kts
30-Nov-21 10:18 35.755191 -113.010130 72 14981ft 259kts
30-Nov-21 10:18 35.772321 -112.939133 72 14981ft 259kts
30-Nov-21 10:19 35.792824 -112.853880 72 14981ft 260kts
30-Nov-21 10:21 35.815939 -112.757461 72 14979ft 242kts
30-Nov-21 10:22 35.835046 -112.677441 72 14980ft 243kts
30-Nov-21 10:22 35.850943 -112.610631 72 14980ft 243kts
30-Nov-21 10:23 35.868761 -112.535571 72 14537ft 198kts
30-Nov-21 10:24 35.881856 -112.480281 71 13172ft 147kts
30-Nov-21 10:25 35.892273 -112.435957 75 11655ft 127kts
30-Nov-21 10:27 35.870200 -112.395104 127 9949ft 133kts
30-Nov-21 10:27 35.849543 -112.365388 128 8984ft 138kts
30-Nov-21 10:28 35.825069 -112.330288 129 8977ft 132kts
30-Nov-21 10:29 35.814017 -112.294073 48 9078ft 118kts
30-Nov-21 10:30 35.839328 -112.265958 40 9086ft 125kts
30-Nov-21 10:31 35.863078 -112.240967 40 8643ft 109kts
30-Nov-21 10:32 35.886062 -112.216796 40 8051ft 107kts
30-Nov-21 10:33 35.908766 -112.192901 40 7477ft 108kts
30-Nov-21 10:34 35.931260 -112.169253 40 6900ft 99kts
30-Nov-21 10:35 35.949909 -112.149550 40 6579ft 54kts
30-Nov-21 10:36 35.956710 -112.142269 69 6608ft 10kts
30-Nov-21 10:37 35.956412 -112.141032 75 6611ft 0kts
30-Nov-21 10:38 35.956679 -112.140645 40 6612ft 8kts
30-Nov-21 10:39 35.958674 -112.138535 40 6620ft 6kts
30-Nov-21 10:40 35.960058 -112.136952 136 6620ft 4kts
30-Nov-21 10:41 35.959817 -112.136760 224 6621ft 0kts
30-Nov-21 10:42 35.959817 -112.136760 224 6621ft 0kts
30-Nov-21 10:43 35.959817 -112.136760 224 6621ft 0kts
30-Nov-21 10:44 35.959817 -112.136760 224 6621ft 0kts
30-Nov-21 10:45 35.959817 -112.136760 224 6621ft 0kts
30-Nov-21 10:46 35.959817 -112.136760 224 6621ft 0kts
30-Nov-21 10:47 35.959817 -112.136760 224 6621ft 0kts
30-Nov-21 10:48 35.959817 -112.136760 224 6621ft 0kts
30-Nov-21 10:49 35.959817 -112.136760 224 6621ft 0kts

Navigation Log

Ident Type
Flight plan parsing failed, navigation log unavailable